sensor_id;sensor_type;location;lat;lon;timestamp;P1;durP1;ratioP1;P2;durP2;ratioP2
21758;SDS011;11041;50.854;20.580;2023-10-31T00:01:30;16.75;;;5.70;;
21758;SDS011;11041;50.854;20.580;2023-10-31T00:03:57;13.48;;;5.70;;
21758;SDS011;11041;50.854;20.580;2023-10-31T00:06:23;10.32;;;5.95;;
21758;SDS011;11041;50.854;20.580;2023-10-31T00:08:50;9.80;;;5.70;;
21758;SDS011;11041;50.854;20.580;2023-10-31T00:11:17;8.45;;;5.78;;
21758;SDS011;11041;50.854;20.580;2023-10-31T00:13:43;11.98;;;6.00;;
21758;SDS011;11041;50.854;20.580;2023-10-31T00:16:10;10.98;;;5.80;;
21758;SDS011;11041;50.854;20.580;2023-10-31T00:18:37;8.32;;;5.75;;
21758;SDS011;11041;50.854;20.580;2023-10-31T00:21:03;10.45;;;5.53;;
21758;SDS011;11041;50.854;20.580;2023-10-31T00:23:31;8.90;;;5.45;;
21758;SDS011;11041;50.854;20.580;2023-10-31T00:25:58;9.02;;;5.22;;
21758;SDS011;11041;50.854;20.580;2023-10-31T00:28:25;12.50;;;6.15;;
21758;SDS011;11041;50.854;20.580;2023-10-31T00:30:53;8.63;;;5.45;;
21758;SDS011;11041;50.854;20.580;2023-10-31T00:33:21;10.13;;;5.43;;
21758;SDS011;11041;50.854;20.580;2023-10-31T00:35:47;7.68;;;4.63;;
21758;SDS011;11041;50.854;20.580;2023-10-31T00:38:15;10.18;;;5.50;;
21758;SDS011;11041;50.854;20.580;2023-10-31T00:40:42;14.13;;;5.55;;
21758;SDS011;11041;50.854;20.580;2023-10-31T00:43:09;11.20;;;4.70;;
21758;SDS011;11041;50.854;20.580;2023-10-31T00:45:38;9.27;;;4.65;;
21758;SDS011;11041;50.854;20.580;2023-10-31T00:48:05;8.13;;;5.50;;
21758;SDS011;11041;50.854;20.580;2023-10-31T00:50:33;10.70;;;5.18;;
21758;SDS011;11041;50.854;20.580;2023-10-31T00:53:01;9.07;;;4.88;;
21758;SDS011;11041;50.854;20.580;2023-10-31T00:55:28;8.13;;;4.85;;
21758;SDS011;11041;50.854;20.580;2023-10-31T00:57:55;11.15;;;5.05;;
21758;SDS011;11041;50.854;20.580;2023-10-31T01:00:23;6.15;;;4.70;;
21758;SDS011;11041;50.854;20.580;2023-10-31T01:02:50;7.82;;;4.45;;
21758;SDS011;11041;50.854;20.580;2023-10-31T01:05:17;9.10;;;4.68;;
21758;SDS011;11041;50.854;20.580;2023-10-31T01:07:46;9.35;;;4.90;;
21758;SDS011;11041;50.854;20.580;2023-10-31T01:10:12;8.18;;;4.53;;
21758;SDS011;11041;50.854;20.580;2023-10-31T01:12:40;7.07;;;4.10;;
21758;SDS011;11041;50.854;20.580;2023-10-31T01:15:06;7.28;;;4.93;;
21758;SDS011;11041;50.854;20.580;2023-10-31T01:17:33;8.25;;;4.30;;
21758;SDS011;11041;50.854;20.580;2023-10-31T01:20:02;8.30;;;4.50;;
21758;SDS011;11041;50.854;20.580;2023-10-31T01:22:29;6.90;;;4.38;;
21758;SDS011;11041;50.854;20.580;2023-10-31T01:24:55;8.18;;;4.05;;
21758;SDS011;11041;50.854;20.580;2023-10-31T01:27:25;10.00;;;4.50;;
21758;SDS011;11041;50.854;20.580;2023-10-31T01:29:54;8.13;;;3.95;;
21758;SDS011;11041;50.854;20.580;2023-10-31T01:32:23;5.50;;;3.63;;
21758;SDS011;11041;50.854;20.580;2023-10-31T01:34:52;7.65;;;4.15;;
21758;SDS011;11041;50.854;20.580;2023-10-31T01:37:19;6.72;;;4.28;;
21758;SDS011;11041;50.854;20.580;2023-10-31T01:39:47;9.18;;;4.88;;
21758;SDS011;11041;50.854;20.580;2023-10-31T01:42:16;6.65;;;3.97;;
21758;SDS011;11041;50.854;20.580;2023-10-31T01:44:47;8.20;;;3.75;;
21758;SDS011;11041;50.854;20.580;2023-10-31T01:47:18;6.03;;;3.67;;
21758;SDS011;11041;50.854;20.580;2023-10-31T01:49:50;8.25;;;3.80;;
21758;SDS011;11041;50.854;20.580;2023-10-31T01:52:18;8.23;;;4.20;;
21758;SDS011;11041;50.854;20.580;2023-10-31T01:54:49;7.10;;;4.10;;
21758;SDS011;11041;50.854;20.580;2023-10-31T01:57:21;9.10;;;3.60;;
21758;SDS011;11041;50.854;20.580;2023-10-31T01:59:49;5.15;;;3.40;;
21758;SDS011;11041;50.854;20.580;2023-10-31T02:02:18;6.38;;;4.20;;
21758;SDS011;11041;50.854;20.580;2023-10-31T02:04:51;6.03;;;3.78;;
21758;SDS011;11041;50.854;20.580;2023-10-31T02:07:21;8.25;;;4.07;;
21758;SDS011;11041;50.854;20.580;2023-10-31T02:09:50;5.65;;;4.05;;
21758;SDS011;11041;50.854;20.580;2023-10-31T02:12:35;7.57;;;4.10;;
21758;SDS011;11041;50.854;20.580;2023-10-31T02:15:07;6.00;;;4.10;;
21758;SDS011;11041;50.854;20.580;2023-10-31T02:17:37;5.80;;;3.42;;
21758;SDS011;11041;50.854;20.580;2023-10-31T02:20:08;6.43;;;3.60;;
21758;SDS011;11041;50.854;20.580;2023-10-31T02:22:41;8.45;;;3.30;;
21758;SDS011;11041;50.854;20.580;2023-10-31T02:25:17;6.45;;;3.60;;
21758;SDS011;11041;50.854;20.580;2023-10-31T02:27:48;9.38;;;3.35;;
21758;SDS011;11041;50.854;20.580;2023-10-31T02:30:17;4.95;;;3.42;;
21758;SDS011;11041;50.854;20.580;2023-10-31T02:32:48;10.50;;;3.53;;
21758;SDS011;11041;50.854;20.580;2023-10-31T02:35:20;6.68;;;3.25;;
21758;SDS011;11041;50.854;20.580;2023-10-31T02:37:53;7.20;;;3.60;;
21758;SDS011;11041;50.854;20.580;2023-10-31T02:40:19;11.27;;;3.75;;
21758;SDS011;11041;50.854;20.580;2023-10-31T02:42:48;6.22;;;3.42;;
21758;SDS011;11041;50.854;20.580;2023-10-31T02:45:17;6.05;;;3.70;;
21758;SDS011;11041;50.854;20.580;2023-10-31T02:47:48;5.30;;;3.58;;
21758;SDS011;11041;50.854;20.580;2023-10-31T02:50:19;5.32;;;3.05;;
21758;SDS011;11041;50.854;20.580;2023-10-31T02:52:51;5.85;;;3.08;;
21758;SDS011;11041;50.854;20.580;2023-10-31T02:55:23;5.50;;;3.20;;
21758;SDS011;11041;50.854;20.580;2023-10-31T02:57:50;5.38;;;3.13;;
21758;SDS011;11041;50.854;20.580;2023-10-31T03:00:19;8.75;;;3.83;;
21758;SDS011;11041;50.854;20.580;2023-10-31T03:02:46;6.65;;;2.95;;
21758;SDS011;11041;50.854;20.580;2023-10-31T03:05:14;6.15;;;3.35;;
21758;SDS011;11041;50.854;20.580;2023-10-31T03:07:41;4.97;;;3.33;;
21758;SDS011;11041;50.854;20.580;2023-10-31T03:10:12;8.63;;;3.28;;
21758;SDS011;11041;50.854;20.580;2023-10-31T03:12:42;4.95;;;2.83;;
21758;SDS011;11041;50.854;20.580;2023-10-31T03:15:08;6.35;;;3.15;;
21758;SDS011;11041;50.854;20.580;2023-10-31T03:17:42;7.85;;;4.00;;
21758;SDS011;11041;50.854;20.580;2023-10-31T03:20:12;5.40;;;3.63;;
21758;SDS011;11041;50.854;20.580;2023-10-31T03:22:39;4.32;;;3.20;;
21758;SDS011;11041;50.854;20.580;2023-10-31T03:25:06;5.15;;;2.97;;
21758;SDS011;11041;50.854;20.580;2023-10-31T03:27:39;6.30;;;2.95;;
21758;SDS011;11041;50.854;20.580;2023-10-31T03:30:09;6.05;;;3.50;;
21758;SDS011;11041;50.854;20.580;2023-10-31T03:32:42;3.85;;;3.33;;
21758;SDS011;11041;50.854;20.580;2023-10-31T03:35:14;7.85;;;3.63;;
21758;SDS011;11041;50.854;20.580;2023-10-31T03:37:47;5.22;;;3.20;;
21758;SDS011;11041;50.854;20.580;2023-10-31T03:40:13;5.55;;;3.70;;
21758;SDS011;11041;50.854;20.580;2023-10-31T03:42:42;12.23;;;3.47;;
21758;SDS011;11041;50.854;20.580;2023-10-31T03:45:15;5.13;;;3.25;;
21758;SDS011;11041;50.854;20.580;2023-10-31T03:47:42;9.98;;;3.78;;
21758;SDS011;11041;50.854;20.580;2023-10-31T03:50:10;7.30;;;3.50;;
21758;SDS011;11041;50.854;20.580;2023-10-31T03:52:41;5.18;;;3.53;;
21758;SDS011;11041;50.854;20.580;2023-10-31T03:55:15;7.07;;;3.72;;
21758;SDS011;11041;50.854;20.580;2023-10-31T03:57:46;7.40;;;3.20;;
21758;SDS011;11041;50.854;20.580;2023-10-31T04:00:15;4.75;;;3.55;;
21758;SDS011;11041;50.854;20.580;2023-10-31T04:02:50;6.75;;;3.10;;
21758;SDS011;11041;50.854;20.580;2023-10-31T04:05:23;4.95;;;3.20;;
21758;SDS011;11041;50.854;20.580;2023-10-31T04:07:55;6.80;;;4.00;;
21758;SDS011;11041;50.854;20.580;2023-10-31T04:10:25;5.72;;;3.75;;
21758;SDS011;11041;50.854;20.580;2023-10-31T04:12:52;7.88;;;3.95;;
21758;SDS011;11041;50.854;20.580;2023-10-31T04:15:21;6.00;;;3.47;;
21758;SDS011;11041;50.854;20.580;2023-10-31T04:17:53;7.28;;;3.60;;
21758;SDS011;11041;50.854;20.580;2023-10-31T04:20:22;5.72;;;3.33;;
21758;SDS011;11041;50.854;20.580;2023-10-31T04:22:51;6.32;;;3.83;;
21758;SDS011;11041;50.854;20.580;2023-10-31T04:25:22;5.80;;;3.72;;
21758;SDS011;11041;50.854;20.580;2023-10-31T04:27:53;7.75;;;3.78;;
21758;SDS011;11041;50.854;20.580;2023-10-31T04:30:22;7.60;;;3.60;;
21758;SDS011;11041;50.854;20.580;2023-10-31T04:32:49;9.95;;;4.22;;
21758;SDS011;11041;50.854;20.580;2023-10-31T04:35:21;6.70;;;3.50;;
21758;SDS011;11041;50.854;20.580;2023-10-31T04:37:48;7.95;;;3.78;;
21758;SDS011;11041;50.854;20.580;2023-10-31T04:40:17;9.63;;;4.03;;
21758;SDS011;11041;50.854;20.580;2023-10-31T04:42:46;5.80;;;3.67;;
21758;SDS011;11041;50.854;20.580;2023-10-31T04:45:16;8.15;;;3.70;;
21758;SDS011;11041;50.854;20.580;2023-10-31T04:47:46;12.15;;;4.03;;
21758;SDS011;11041;50.854;20.580;2023-10-31T04:50:16;8.90;;;3.55;;
21758;SDS011;11041;50.854;20.580;2023-10-31T04:52:47;6.97;;;3.63;;
21758;SDS011;11041;50.854;20.580;2023-10-31T04:55:13;4.80;;;3.67;;
21758;SDS011;11041;50.854;20.580;2023-10-31T04:57:47;5.75;;;3.45;;
21758;SDS011;11041;50.854;20.580;2023-10-31T05:00:19;8.73;;;3.97;;
21758;SDS011;11041;50.854;20.580;2023-10-31T05:02:48;5.60;;;3.35;;
21758;SDS011;11041;50.854;20.580;2023-10-31T05:05:20;7.93;;;3.40;;
21758;SDS011;11041;50.854;20.580;2023-10-31T05:07:49;8.18;;;4.25;;
21758;SDS011;11041;50.854;20.580;2023-10-31T05:10:20;8.30;;;3.97;;
21758;SDS011;11041;50.854;20.580;2023-10-31T05:12:50;12.75;;;3.83;;
21758;SDS011;11041;50.854;20.580;2023-10-31T05:15:20;5.50;;;4.00;;
21758;SDS011;11041;50.854;20.580;2023-10-31T05:17:50;9.77;;;4.03;;
21758;SDS011;11041;50.854;20.580;2023-10-31T05:20:17;7.95;;;3.47;;
21758;SDS011;11041;50.854;20.580;2023-10-31T05:22:49;5.70;;;3.90;;
21758;SDS011;11041;50.854;20.580;2023-10-31T05:25:18;6.13;;;3.50;;
21758;SDS011;11041;50.854;20.580;2023-10-31T05:27:46;8.48;;;3.97;;
21758;SDS011;11041;50.854;20.580;2023-10-31T05:30:18;10.00;;;7.15;;
21758;SDS011;11041;50.854;20.580;2023-10-31T05:32:49;5.95;;;3.78;;
21758;SDS011;11041;50.854;20.580;2023-10-31T05:35:21;6.70;;;3.67;;
21758;SDS011;11041;50.854;20.580;2023-10-31T05:37:48;7.78;;;3.50;;
21758;SDS011;11041;50.854;20.580;2023-10-31T05:40:18;8.27;;;4.07;;
21758;SDS011;11041;50.854;20.580;2023-10-31T05:42:53;8.93;;;4.18;;
21758;SDS011;11041;50.854;20.580;2023-10-31T05:45:23;6.63;;;3.60;;
21758;SDS011;11041;50.854;20.580;2023-10-31T05:47:50;12.13;;;3.58;;
21758;SDS011;11041;50.854;20.580;2023-10-31T05:50:17;7.40;;;3.40;;
21758;SDS011;11041;50.854;20.580;2023-10-31T05:52:46;7.28;;;3.40;;
21758;SDS011;11041;50.854;20.580;2023-10-31T05:55:13;8.85;;;3.28;;
21758;SDS011;11041;50.854;20.580;2023-10-31T05:57:40;4.72;;;3.58;;
21758;SDS011;11041;50.854;20.580;2023-10-31T06:00:07;10.57;;;3.75;;
21758;SDS011;11041;50.854;20.580;2023-10-31T06:02:34;7.43;;;3.38;;
21758;SDS011;11041;50.854;20.580;2023-10-31T06:05:02;9.15;;;3.33;;
21758;SDS011;11041;50.854;20.580;2023-10-31T06:07:32;5.07;;;3.33;;
21758;SDS011;11041;50.854;20.580;2023-10-31T06:10:01;5.63;;;3.40;;
21758;SDS011;11041;50.854;20.580;2023-10-31T06:12:28;8.60;;;3.38;;
21758;SDS011;11041;50.854;20.580;2023-10-31T06:14:57;7.32;;;3.45;;
21758;SDS011;11041;50.854;20.580;2023-10-31T06:17:24;9.02;;;3.55;;
21758;SDS011;11041;50.854;20.580;2023-10-31T06:19:53;7.32;;;3.65;;
21758;SDS011;11041;50.854;20.580;2023-10-31T06:22:19;9.95;;;3.45;;
21758;SDS011;11041;50.854;20.580;2023-10-31T06:24:46;12.35;;;3.40;;
21758;SDS011;11041;50.854;20.580;2023-10-31T06:27:14;6.72;;;3.42;;
21758;SDS011;11041;50.854;20.580;2023-10-31T06:29:41;11.20;;;3.70;;
21758;SDS011;11041;50.854;20.580;2023-10-31T06:32:12;7.63;;;3.50;;
21758;SDS011;11041;50.854;20.580;2023-10-31T06:34:39;5.15;;;3.03;;
21758;SDS011;11041;50.854;20.580;2023-10-31T06:37:06;8.52;;;3.25;;
21758;SDS011;11041;50.854;20.580;2023-10-31T06:39:36;5.07;;;2.92;;
21758;SDS011;11041;50.854;20.580;2023-10-31T06:42:03;6.70;;;3.47;;
21758;SDS011;11041;50.854;20.580;2023-10-31T06:44:35;6.60;;;2.88;;
21758;SDS011;11041;50.854;20.580;2023-10-31T06:47:03;6.45;;;3.17;;
21758;SDS011;11041;50.854;20.580;2023-10-31T06:49:31;6.68;;;3.50;;
21758;SDS011;11041;50.854;20.580;2023-10-31T06:51:57;8.23;;;3.25;;
21758;SDS011;11041;50.854;20.580;2023-10-31T06:54:25;4.50;;;3.10;;
21758;SDS011;11041;50.854;20.580;2023-10-31T06:56:54;6.47;;;3.47;;
21758;SDS011;11041;50.854;20.580;2023-10-31T06:59:23;5.35;;;3.20;;
21758;SDS011;11041;50.854;20.580;2023-10-31T07:01:50;6.75;;;3.53;;
21758;SDS011;11041;50.854;20.580;2023-10-31T07:04:18;8.43;;;3.90;;
21758;SDS011;11041;50.854;20.580;2023-10-31T07:06:45;9.20;;;4.97;;
21758;SDS011;11041;50.854;20.580;2023-10-31T07:09:18;6.35;;;3.72;;
21758;SDS011;11041;50.854;20.580;2023-10-31T07:11:44;12.35;;;3.63;;
21758;SDS011;11041;50.854;20.580;2023-10-31T07:14:18;6.72;;;3.00;;
21758;SDS011;11041;50.854;20.580;2023-10-31T07:16:49;6.75;;;3.00;;
21758;SDS011;11041;50.854;20.580;2023-10-31T07:19:16;7.18;;;3.13;;
21758;SDS011;11041;50.854;20.580;2023-10-31T07:21:45;5.55;;;3.22;;
21758;SDS011;11041;50.854;20.580;2023-10-31T07:24:19;6.80;;;3.47;;
21758;SDS011;11041;50.854;20.580;2023-10-31T07:26:48;6.95;;;3.22;;
21758;SDS011;11041;50.854;20.580;2023-10-31T07:29:15;6.25;;;3.47;;
21758;SDS011;11041;50.854;20.580;2023-10-31T07:31:41;4.93;;;3.13;;
21758;SDS011;11041;50.854;20.580;2023-10-31T07:34:12;6.03;;;2.97;;
21758;SDS011;11041;50.854;20.580;2023-10-31T07:36:38;5.68;;;3.08;;
21758;SDS011;11041;50.854;20.580;2023-10-31T07:39:09;5.50;;;3.00;;
21758;SDS011;11041;50.854;20.580;2023-10-31T07:41:40;5.43;;;3.10;;
21758;SDS011;11041;50.854;20.580;2023-10-31T07:44:09;6.70;;;3.13;;
21758;SDS011;11041;50.854;20.580;2023-10-31T07:46:39;4.72;;;2.90;;
21758;SDS011;11041;50.854;20.580;2023-10-31T07:49:06;7.20;;;3.03;;
21758;SDS011;11041;50.854;20.580;2023-10-31T07:51:37;8.07;;;3.20;;
21758;SDS011;11041;50.854;20.580;2023-10-31T07:54:06;6.90;;;4.30;;
21758;SDS011;11041;50.854;20.580;2023-10-31T07:56:37;6.55;;;3.25;;
21758;SDS011;11041;50.854;20.580;2023-10-31T07:59:07;6.65;;;3.30;;
21758;SDS011;11041;50.854;20.580;2023-10-31T08:01:34;7.68;;;3.47;;
21758;SDS011;11041;50.854;20.580;2023-10-31T08:04:03;4.78;;;3.13;;
21758;SDS011;11041;50.854;20.580;2023-10-31T08:06:37;10.20;;;4.35;;
21758;SDS011;11041;50.854;20.580;2023-10-31T08:09:04;6.07;;;3.38;;
21758;SDS011;11041;50.854;20.580;2023-10-31T08:11:31;5.10;;;3.70;;
21758;SDS011;11041;50.854;20.580;2023-10-31T08:14:01;4.82;;;3.42;;
21758;SDS011;11041;50.854;20.580;2023-10-31T08:16:28;12.30;;;3.90;;
21758;SDS011;11041;50.854;20.580;2023-10-31T08:18:55;8.10;;;3.55;;
21758;SDS011;11041;50.854;20.580;2023-10-31T08:21:23;7.82;;;3.50;;
21758;SDS011;11041;50.854;20.580;2023-10-31T08:23:50;7.40;;;3.47;;
21758;SDS011;11041;50.854;20.580;2023-10-31T08:26:19;7.50;;;3.38;;
21758;SDS011;11041;50.854;20.580;2023-10-31T08:28:49;5.25;;;3.38;;
21758;SDS011;11041;50.854;20.580;2023-10-31T08:31:16;10.90;;;3.35;;
21758;SDS011;11041;50.854;20.580;2023-10-31T08:33:46;5.22;;;3.00;;
21758;SDS011;11041;50.854;20.580;2023-10-31T08:36:13;7.03;;;3.85;;
21758;SDS011;11041;50.854;20.580;2023-10-31T08:38:39;10.48;;;3.42;;
21758;SDS011;11041;50.854;20.580;2023-10-31T08:41:08;9.20;;;3.55;;
21758;SDS011;11041;50.854;20.580;2023-10-31T08:43:35;5.05;;;3.10;;
21758;SDS011;11041;50.854;20.580;2023-10-31T08:46:01;8.63;;;3.33;;
21758;SDS011;11041;50.854;20.580;2023-10-31T08:48:34;10.43;;;2.95;;
21758;SDS011;11041;50.854;20.580;2023-10-31T08:51:03;6.47;;;2.80;;
21758;SDS011;11041;50.854;20.580;2023-10-31T08:53:30;8.13;;;3.00;;
21758;SDS011;11041;50.854;20.580;2023-10-31T08:55:57;6.47;;;3.10;;
21758;SDS011;11041;50.854;20.580;2023-10-31T08:58:24;6.35;;;2.97;;
21758;SDS011;11041;50.854;20.580;2023-10-31T09:00:50;5.20;;;2.85;;
21758;SDS011;11041;50.854;20.580;2023-10-31T09:03:18;7.63;;;2.90;;
21758;SDS011;11041;50.854;20.580;2023-10-31T09:05:45;5.35;;;2.70;;
21758;SDS011;11041;50.854;20.580;2023-10-31T09:08:12;6.95;;;3.35;;
21758;SDS011;11041;50.854;20.580;2023-10-31T09:10:42;7.88;;;2.72;;
21758;SDS011;11041;50.854;20.580;2023-10-31T09:13:12;7.20;;;2.50;;
21758;SDS011;11041;50.854;20.580;2023-10-31T09:15:42;7.30;;;2.80;;
21758;SDS011;11041;50.854;20.580;2023-10-31T09:18:13;4.57;;;2.58;;
21758;SDS011;11041;50.854;20.580;2023-10-31T09:20:40;8.77;;;3.20;;
21758;SDS011;11041;50.854;20.580;2023-10-31T09:23:09;8.60;;;2.85;;
21758;SDS011;11041;50.854;20.580;2023-10-31T09:25:38;8.23;;;3.15;;
21758;SDS011;11041;50.854;20.580;2023-10-31T09:28:06;9.60;;;2.90;;
21758;SDS011;11041;50.854;20.580;2023-10-31T09:30:36;5.22;;;2.78;;
21758;SDS011;11041;50.854;20.580;2023-10-31T09:33:06;4.95;;;2.90;;
21758;SDS011;11041;50.854;20.580;2023-10-31T09:35:38;4.45;;;2.70;;
21758;SDS011;11041;50.854;20.580;2023-10-31T09:38:07;14.35;;;2.90;;
21758;SDS011;11041;50.854;20.580;2023-10-31T09:40:36;8.50;;;3.35;;
21758;SDS011;11041;50.854;20.580;2023-10-31T09:43:05;7.32;;;2.72;;
21758;SDS011;11041;50.854;20.580;2023-10-31T09:45:33;7.05;;;2.97;;
21758;SDS011;11041;50.854;20.580;2023-10-31T09:48:01;10.02;;;3.45;;
21758;SDS011;11041;50.854;20.580;2023-10-31T09:50:29;11.57;;;2.95;;
21758;SDS011;11041;50.854;20.580;2023-10-31T09:52:56;9.20;;;3.20;;
21758;SDS011;11041;50.854;20.580;2023-10-31T09:55:27;7.68;;;3.30;;
21758;SDS011;11041;50.854;20.580;2023-10-31T09:57:56;8.85;;;3.50;;
21758;SDS011;11041;50.854;20.580;2023-10-31T10:00:23;8.15;;;3.15;;
21758;SDS011;11041;50.854;20.580;2023-10-31T10:02:50;4.88;;;2.63;;
21758;SDS011;11041;50.854;20.580;2023-10-31T10:05:19;5.90;;;3.15;;
21758;SDS011;11041;50.854;20.580;2023-10-31T10:07:50;7.18;;;2.92;;
21758;SDS011;11041;50.854;20.580;2023-10-31T10:10:22;11.65;;;3.30;;
21758;SDS011;11041;50.854;20.580;2023-10-31T10:12:50;10.35;;;2.75;;
21758;SDS011;11041;50.854;20.580;2023-10-31T10:15:20;6.93;;;2.90;;
21758;SDS011;11041;50.854;20.580;2023-10-31T10:17:49;6.07;;;2.97;;
21758;SDS011;11041;50.854;20.580;2023-10-31T10:20:18;5.75;;;2.95;;
21758;SDS011;11041;50.854;20.580;2023-10-31T10:22:46;8.32;;;3.15;;
21758;SDS011;11041;50.854;20.580;2023-10-31T10:25:14;6.75;;;2.75;;
21758;SDS011;11041;50.854;20.580;2023-10-31T10:27:48;4.75;;;2.45;;
21758;SDS011;11041;50.854;20.580;2023-10-31T10:30:18;6.60;;;3.13;;
21758;SDS011;11041;50.854;20.580;2023-10-31T10:32:51;6.22;;;3.10;;
21758;SDS011;11041;50.854;20.580;2023-10-31T10:35:18;8.57;;;3.42;;
21758;SDS011;11041;50.854;20.580;2023-10-31T10:37:45;7.97;;;3.08;;
21758;SDS011;11041;50.854;20.580;2023-10-31T10:40:15;9.80;;;2.88;;
21758;SDS011;11041;50.854;20.580;2023-10-31T10:42:46;8.43;;;2.83;;
21758;SDS011;11041;50.854;20.580;2023-10-31T10:45:16;5.50;;;2.60;;
21758;SDS011;11041;50.854;20.580;2023-10-31T10:47:45;7.72;;;2.72;;
21758;SDS011;11041;50.854;20.580;2023-10-31T10:50:14;7.43;;;3.10;;
21758;SDS011;11041;50.854;20.580;2023-10-31T10:52:49;6.07;;;2.25;;
21758;SDS011;11041;50.854;20.580;2023-10-31T10:55:37;7.03;;;3.10;;
21758;SDS011;11041;50.854;20.580;2023-10-31T10:58:21;6.20;;;2.40;;
21758;SDS011;11041;50.854;20.580;2023-10-31T11:01:07;4.63;;;2.75;;
21758;SDS011;11041;50.854;20.580;2023-10-31T11:03:37;10.77;;;2.78;;
21758;SDS011;11041;50.854;20.580;2023-10-31T11:06:05;6.60;;;2.70;;
21758;SDS011;11041;50.854;20.580;2023-10-31T11:08:37;3.90;;;2.72;;
21758;SDS011;11041;50.854;20.580;2023-10-31T11:11:07;5.40;;;2.95;;
21758;SDS011;11041;50.854;20.580;2023-10-31T11:13:39;4.53;;;2.55;;
21758;SDS011;11041;50.854;20.580;2023-10-31T11:16:13;2.88;;;2.38;;
21758;SDS011;11041;50.854;20.580;2023-10-31T11:18:52;6.45;;;2.67;;
21758;SDS011;11041;50.854;20.580;2023-10-31T11:21:24;5.85;;;3.00;;
21758;SDS011;11041;50.854;20.580;2023-10-31T11:23:58;9.23;;;2.60;;
21758;SDS011;11041;50.854;20.580;2023-10-31T11:26:32;7.22;;;3.30;;
21758;SDS011;11041;50.854;20.580;2023-10-31T11:29:05;4.57;;;2.67;;
21758;SDS011;11041;50.854;20.580;2023-10-31T11:31:35;7.93;;;2.92;;
21758;SDS011;11041;50.854;20.580;2023-10-31T11:34:08;5.22;;;2.88;;
21758;SDS011;11041;50.854;20.580;2023-10-31T11:36:38;8.73;;;3.08;;
21758;SDS011;11041;50.854;20.580;2023-10-31T11:39:12;4.90;;;3.15;;
21758;SDS011;11041;50.854;20.580;2023-10-31T11:41:54;9.88;;;3.10;;
21758;SDS011;11041;50.854;20.580;2023-10-31T11:44:26;4.95;;;2.85;;
21758;SDS011;11041;50.854;20.580;2023-10-31T11:46:58;5.20;;;2.92;;
21758;SDS011;11041;50.854;20.580;2023-10-31T11:52:19;4.35;;;2.50;;
21758;SDS011;11041;50.854;20.580;2023-10-31T11:54:52;5.78;;;3.15;;
21758;SDS011;11041;50.854;20.580;2023-10-31T11:57:27;7.82;;;2.92;;
21758;SDS011;11041;50.854;20.580;2023-10-31T11:59:56;7.72;;;2.88;;
21758;SDS011;11041;50.854;20.580;2023-10-31T12:02:22;7.80;;;2.80;;
21758;SDS011;11041;50.854;20.580;2023-10-31T12:05:06;7.03;;;3.00;;
21758;SDS011;11041;50.854;20.580;2023-10-31T12:07:42;7.03;;;3.03;;
21758;SDS011;11041;50.854;20.580;2023-10-31T12:10:20;6.75;;;3.28;;
21758;SDS011;11041;50.854;20.580;2023-10-31T12:12:57;8.65;;;3.17;;
21758;SDS011;11041;50.854;20.580;2023-10-31T12:15:25;6.47;;;2.90;;
21758;SDS011;11041;50.854;20.580;2023-10-31T12:17:51;9.75;;;5.65;;
21758;SDS011;11041;50.854;20.580;2023-10-31T12:20:23;4.57;;;2.67;;
21758;SDS011;11041;50.854;20.580;2023-10-31T12:23:01;6.53;;;2.65;;
21758;SDS011;11041;50.854;20.580;2023-10-31T12:25:31;8.73;;;3.25;;
21758;SDS011;11041;50.854;20.580;2023-10-31T12:28:00;5.35;;;3.10;;
21758;SDS011;11041;50.854;20.580;2023-10-31T12:30:27;4.40;;;2.70;;
21758;SDS011;11041;50.854;20.580;2023-10-31T12:32:55;4.00;;;2.75;;
21758;SDS011;11041;50.854;20.580;2023-10-31T12:35:23;4.90;;;2.60;;
21758;SDS011;11041;50.854;20.580;2023-10-31T12:37:52;5.97;;;2.75;;
21758;SDS011;11041;50.854;20.580;2023-10-31T12:40:24;4.55;;;2.70;;
21758;SDS011;11041;50.854;20.580;2023-10-31T12:42:56;3.92;;;2.95;;
21758;SDS011;11041;50.854;20.580;2023-10-31T12:45:30;7.53;;;2.80;;
21758;SDS011;11041;50.854;20.580;2023-10-31T12:48:00;9.15;;;3.20;;
21758;SDS011;11041;50.854;20.580;2023-10-31T12:50:35;5.07;;;3.40;;
21758;SDS011;11041;50.854;20.580;2023-10-31T12:53:06;6.35;;;2.85;;
21758;SDS011;11041;50.854;20.580;2023-10-31T12:55:42;3.40;;;2.80;;
21758;SDS011;11041;50.854;20.580;2023-10-31T12:58:19;4.13;;;2.53;;
21758;SDS011;11041;50.854;20.580;2023-10-31T13:00:49;5.18;;;2.95;;
21758;SDS011;11041;50.854;20.580;2023-10-31T13:03:23;5.82;;;2.70;;
21758;SDS011;11041;50.854;20.580;2023-10-31T13:05:54;4.05;;;2.30;;
21758;SDS011;11041;50.854;20.580;2023-10-31T13:08:24;4.93;;;2.58;;
21758;SDS011;11041;50.854;20.580;2023-10-31T13:10:53;4.82;;;2.70;;
21758;SDS011;11041;50.854;20.580;2023-10-31T13:13:26;4.53;;;2.90;;
21758;SDS011;11041;50.854;20.580;2023-10-31T13:15:57;2.70;;;2.30;;
21758;SDS011;11041;50.854;20.580;2023-10-31T13:18:26;3.25;;;2.17;;
21758;SDS011;11041;50.854;20.580;2023-10-31T13:20:54;4.55;;;2.50;;
21758;SDS011;11041;50.854;20.580;2023-10-31T13:23:26;6.53;;;2.72;;
21758;SDS011;11041;50.854;20.580;2023-10-31T13:25:58;5.88;;;2.53;;
21758;SDS011;11041;50.854;20.580;2023-10-31T13:28:27;4.30;;;2.60;;
21758;SDS011;11041;50.854;20.580;2023-10-31T13:30:59;5.40;;;2.60;;
21758;SDS011;11041;50.854;20.580;2023-10-31T13:33:30;4.82;;;2.53;;
21758;SDS011;11041;50.854;20.580;2023-10-31T13:35:57;4.95;;;2.78;;
21758;SDS011;11041;50.854;20.580;2023-10-31T13:38:29;3.47;;;2.50;;
21758;SDS011;11041;50.854;20.580;2023-10-31T13:41:01;5.72;;;2.40;;
21758;SDS011;11041;50.854;20.580;2023-10-31T13:43:28;4.97;;;2.95;;
21758;SDS011;11041;50.854;20.580;2023-10-31T13:45:55;5.30;;;2.72;;
21758;SDS011;11041;50.854;20.580;2023-10-31T13:48:22;4.38;;;2.40;;
21758;SDS011;11041;50.854;20.580;2023-10-31T13:50:54;7.28;;;2.55;;
21758;SDS011;11041;50.854;20.580;2023-10-31T13:53:23;4.47;;;2.38;;
21758;SDS011;11041;50.854;20.580;2023-10-31T13:55:53;3.63;;;2.25;;
21758;SDS011;11041;50.854;20.580;2023-10-31T13:58:20;5.00;;;2.25;;
21758;SDS011;11041;50.854;20.580;2023-10-31T14:00:51;4.13;;;2.47;;
21758;SDS011;11041;50.854;20.580;2023-10-31T14:03:19;7.13;;;3.53;;
21758;SDS011;11041;50.854;20.580;2023-10-31T14:05:49;2.78;;;2.53;;
21758;SDS011;11041;50.854;20.580;2023-10-31T14:08:16;7.07;;;4.03;;
21758;SDS011;11041;50.854;20.580;2023-10-31T14:10:45;5.35;;;3.20;;
21758;SDS011;11041;50.854;20.580;2023-10-31T14:13:13;6.97;;;2.45;;
21758;SDS011;11041;50.854;20.580;2023-10-31T14:15:43;9.75;;;6.38;;
21758;SDS011;11041;50.854;20.580;2023-10-31T14:18:14;3.53;;;2.65;;
21758;SDS011;11041;50.854;20.580;2023-10-31T14:20:43;7.53;;;3.95;;
21758;SDS011;11041;50.854;20.580;2023-10-31T14:23:10;5.72;;;3.22;;
21758;SDS011;11041;50.854;20.580;2023-10-31T14:25:39;10.23;;;3.42;;
21758;SDS011;11041;50.854;20.580;2023-10-31T14:28:10;6.80;;;3.53;;
21758;SDS011;11041;50.854;20.580;2023-10-31T14:30:39;6.55;;;2.72;;
21758;SDS011;11041;50.854;20.580;2023-10-31T14:33:07;8.00;;;3.10;;
21758;SDS011;11041;50.854;20.580;2023-10-31T14:35:37;6.63;;;2.95;;
21758;SDS011;11041;50.854;20.580;2023-10-31T14:38:05;9.07;;;2.80;;
21758;SDS011;11041;50.854;20.580;2023-10-31T14:40:32;10.25;;;2.72;;
21758;SDS011;11041;50.854;20.580;2023-10-31T14:42:58;7.30;;;3.08;;
21758;SDS011;11041;50.854;20.580;2023-10-31T14:45:25;6.93;;;3.17;;
21758;SDS011;11041;50.854;20.580;2023-10-31T14:47:52;9.77;;;3.35;;
21758;SDS011;11041;50.854;20.580;2023-10-31T14:50:24;5.93;;;3.45;;